sensor_id;sensor_type;location;lat;lon;timestamp;P1;durP1;ratioP1;P2;durP2;ratioP2
14373;SDS011;7270;49.004;12.066;2022-08-03T05:34:44;1.00;;;1.00;;
14373;SDS011;7270;49.004;12.066;2022-08-03T05:37:11;1.00;;;1.00;;
14373;SDS011;7270;49.004;12.066;2022-08-03T05:39:37;1.00;;;1.00;;
14373;SDS011;7270;49.004;12.066;2022-08-03T05:42:03;1.00;;;1.00;;
14373;SDS011;7270;49.004;12.066;2022-08-03T05:44:31;1.00;;;1.00;;
14373;SDS011;7270;49.004;12.066;2022-08-03T05:46:57;1.00;;;1.00;;
14373;SDS011;7270;49.004;12.066;2022-08-03T05:49:23;0.90;;;0.90;;
14373;SDS011;7270;49.004;12.066;2022-08-03T05:51:51;1.00;;;1.00;;
14373;SDS011;7270;49.004;12.066;2022-08-03T05:54:17;0.90;;;0.90;;
14373;SDS011;7270;49.004;12.066;2022-08-03T05:56:44;0.97;;;0.97;;
14373;SDS011;7270;49.004;12.066;2022-08-03T05:59:10;0.90;;;0.90;;
14373;SDS011;7270;49.004;12.066;2022-08-03T06:01:36;1.20;;;1.20;;
14373;SDS011;7270;49.004;12.066;2022-08-03T06:04:03;1.10;;;1.10;;
14373;SDS011;7270;49.004;12.066;2022-08-03T06:06:31;1.10;;;1.10;;
14373;SDS011;7270;49.004;12.066;2022-08-03T06:08:59;1.00;;;1.00;;
14373;SDS011;7270;49.004;12.066;2022-08-03T06:11:25;1.07;;;1.07;;
14373;SDS011;7270;49.004;12.066;2022-08-03T06:13:52;1.00;;;1.00;;
14373;SDS011;7270;49.004;12.066;2022-08-03T06:16:18;1.10;;;1.10;;
14373;SDS011;7270;49.004;12.066;2022-08-03T06:18:44;1.10;;;1.10;;
14373;SDS011;7270;49.004;12.066;2022-08-03T06:21:14;1.10;;;1.10;;
14373;SDS011;7270;49.004;12.066;2022-08-03T06:23:40;0.90;;;0.90;;
14373;SDS011;7270;49.004;12.066;2022-08-03T06:26:09;1.10;;;1.10;;
14373;SDS011;7270;49.004;12.066;2022-08-03T06:28:36;1.03;;;1.03;;
14373;SDS011;7270;49.004;12.066;2022-08-03T06:31:02;1.03;;;1.03;;
14373;SDS011;7270;49.004;12.066;2022-08-03T06:33:29;1.10;;;1.10;;
14373;SDS011;7270;49.004;12.066;2022-08-03T06:35:56;1.10;;;1.10;;
14373;SDS011;7270;49.004;12.066;2022-08-03T06:38:22;1.10;;;1.10;;
14373;SDS011;7270;49.004;12.066;2022-08-03T06:40:48;1.10;;;1.10;;
14373;SDS011;7270;49.004;12.066;2022-08-03T06:43:16;1.00;;;1.00;;
14373;SDS011;7270;49.004;12.066;2022-08-03T06:45:42;1.00;;;1.00;;
14373;SDS011;7270;49.004;12.066;2022-08-03T06:48:09;1.10;;;1.10;;
14373;SDS011;7270;49.004;12.066;2022-08-03T06:50:37;1.10;;;1.10;;
14373;SDS011;7270;49.004;12.066;2022-08-03T06:53:04;1.00;;;1.00;;
14373;SDS011;7270;49.004;12.066;2022-08-03T06:55:31;1.13;;;1.13;;
14373;SDS011;7270;49.004;12.066;2022-08-03T06:57:57;1.10;;;1.10;;
14373;SDS011;7270;49.004;12.066;2022-08-03T07:00:25;1.10;;;1.10;;
14373;SDS011;7270;49.004;12.066;2022-08-03T07:02:52;1.10;;;1.10;;
14373;SDS011;7270;49.004;12.066;2022-08-03T07:05:18;1.10;;;1.10;;
14373;SDS011;7270;49.004;12.066;2022-08-03T07:07:45;1.20;;;1.20;;
14373;SDS011;7270;49.004;12.066;2022-08-03T07:10:11;1.10;;;1.10;;
14373;SDS011;7270;49.004;12.066;2022-08-03T07:12:38;1.23;;;1.20;;
14373;SDS011;7270;49.004;12.066;2022-08-03T07:15:05;1.13;;;1.13;;
14373;SDS011;7270;49.004;12.066;2022-08-03T07:17:34;1.10;;;1.10;;
14373;SDS011;7270;49.004;12.066;2022-08-03T07:20:01;1.10;;;1.10;;
14373;SDS011;7270;49.004;12.066;2022-08-03T07:22:27;1.20;;;1.20;;
14373;SDS011;7270;49.004;12.066;2022-08-03T07:24:54;1.30;;;1.20;;
14373;SDS011;7270;49.004;12.066;2022-08-03T07:27:20;1.20;;;1.20;;
14373;SDS011;7270;49.004;12.066;2022-08-03T07:29:47;1.27;;;1.20;;
14373;SDS011;7270;49.004;12.066;2022-08-03T07:32:13;1.33;;;1.23;;
14373;SDS011;7270;49.004;12.066;2022-08-03T07:34:41;1.40;;;1.30;;
14373;SDS011;7270;49.004;12.066;2022-08-03T07:37:07;1.40;;;1.30;;
14373;SDS011;7270;49.004;12.066;2022-08-03T07:39:33;1.43;;;1.33;;
14373;SDS011;7270;49.004;12.066;2022-08-03T07:42:00;1.50;;;1.40;;
14373;SDS011;7270;49.004;12.066;2022-08-03T07:44:26;1.50;;;1.40;;
14373;SDS011;7270;49.004;12.066;2022-08-03T07:46:52;1.60;;;1.50;;
14373;SDS011;7270;49.004;12.066;2022-08-03T07:49:19;1.60;;;1.50;;
14373;SDS011;7270;49.004;12.066;2022-08-03T07:51:46;1.70;;;1.60;;
14373;SDS011;7270;49.004;12.066;2022-08-03T07:54:34;1.80;;;1.70;;
14373;SDS011;7270;49.004;12.066;2022-08-03T07:57:00;1.70;;;1.60;;
14373;SDS011;7270;49.004;12.066;2022-08-03T07:59:26;1.80;;;1.70;;
14373;SDS011;7270;49.004;12.066;2022-08-03T08:01:53;1.90;;;1.80;;
14373;SDS011;7270;49.004;12.066;2022-08-03T08:04:20;1.88;;;1.77;;
14373;SDS011;7270;49.004;12.066;2022-08-03T08:06:48;1.90;;;1.80;;
14373;SDS011;7270;49.004;12.066;2022-08-03T08:09:14;1.90;;;1.80;;
14373;SDS011;7270;49.004;12.066;2022-08-03T08:11:40;2.00;;;1.90;;
14373;SDS011;7270;49.004;12.066;2022-08-03T08:14:07;2.08;;;1.98;;
14373;SDS011;7270;49.004;12.066;2022-08-03T08:16:33;2.10;;;2.00;;
14373;SDS011;7270;49.004;12.066;2022-08-03T08:19:00;2.10;;;2.00;;
14373;SDS011;7270;49.004;12.066;2022-08-03T08:21:27;2.10;;;2.00;;
14373;SDS011;7270;49.004;12.066;2022-08-03T08:23:54;2.10;;;2.00;;
14373;SDS011;7270;49.004;12.066;2022-08-03T08:26:21;2.20;;;2.10;;
14373;SDS011;7270;49.004;12.066;2022-08-03T08:28:47;2.13;;;2.03;;
14373;SDS011;7270;49.004;12.066;2022-08-03T08:31:15;2.13;;;2.03;;
14373;SDS011;7270;49.004;12.066;2022-08-03T08:33:41;2.20;;;2.10;;
14373;SDS011;7270;49.004;12.066;2022-08-03T08:36:08;2.20;;;2.10;;
14373;SDS011;7270;49.004;12.066;2022-08-03T08:38:34;2.20;;;2.10;;
14373;SDS011;7270;49.004;12.066;2022-08-03T08:41:02;2.50;;;2.40;;
14373;SDS011;7270;49.004;12.066;2022-08-03T08:43:29;2.38;;;2.28;;
14373;SDS011;7270;49.004;12.066;2022-08-03T08:45:55;2.30;;;2.20;;
14373;SDS011;7270;49.004;12.066;2022-08-03T08:48:23;2.40;;;2.30;;
14373;SDS011;7270;49.004;12.066;2022-08-03T08:50:51;2.50;;;2.40;;
14373;SDS011;7270;49.004;12.066;2022-08-03T08:53:17;2.50;;;2.40;;
14373;SDS011;7270;49.004;12.066;2022-08-03T08:55:45;2.40;;;2.30;;
14373;SDS011;7270;49.004;12.066;2022-08-03T08:58:13;2.40;;;2.30;;
14373;SDS011;7270;49.004;12.066;2022-08-03T09:00:43;2.42;;;2.33;;
14373;SDS011;7270;49.004;12.066;2022-08-03T09:03:09;2.60;;;2.50;;
14373;SDS011;7270;49.004;12.066;2022-08-03T09:05:38;2.63;;;2.53;;
14373;SDS011;7270;49.004;12.066;2022-08-03T09:08:07;2.90;;;2.80;;
14373;SDS011;7270;49.004;12.066;2022-08-03T09:10:33;2.80;;;2.70;;
14373;SDS011;7270;49.004;12.066;2022-08-03T09:13:00;2.80;;;2.70;;
14373;SDS011;7270;49.004;12.066;2022-08-03T09:15:28;2.90;;;2.80;;
14373;SDS011;7270;49.004;12.066;2022-08-03T09:17:55;2.90;;;2.80;;
14373;SDS011;7270;49.004;12.066;2022-08-03T09:20:23;2.90;;;2.80;;
14373;SDS011;7270;49.004;12.066;2022-08-03T09:22:56;2.90;;;2.80;;
14373;SDS011;7270;49.004;12.066;2022-08-03T09:25:29;3.30;;;3.20;;
14373;SDS011;7270;49.004;12.066;2022-08-03T09:28:03;3.40;;;3.22;;
14373;SDS011;7270;49.004;12.066;2022-08-03T09:30:30;4.90;;;4.70;;
14373;SDS011;7270;49.004;12.066;2022-08-03T09:32:58;3.60;;;3.40;;
14373;SDS011;7270;49.004;12.066;2022-08-03T09:35:25;3.30;;;3.20;;
14373;SDS011;7270;49.004;12.066;2022-08-03T09:38:07;3.60;;;3.40;;
14373;SDS011;7270;49.004;12.066;2022-08-03T09:40:35;4.03;;;3.83;;
14373;SDS011;7270;49.004;12.066;2022-08-03T09:43:02;4.88;;;4.68;;
14373;SDS011;7270;49.004;12.066;2022-08-03T09:45:28;5.20;;;5.00;;
14373;SDS011;7270;49.004;12.066;2022-08-03T09:47:56;4.15;;;3.95;;
14373;SDS011;7270;49.004;12.066;2022-08-03T09:50:23;4.10;;;3.90;;
14373;SDS011;7270;49.004;12.066;2022-08-03T09:52:50;4.20;;;4.00;;
14373;SDS011;7270;49.004;12.066;2022-08-03T09:55:16;4.38;;;4.18;;
14373;SDS011;7270;49.004;12.066;2022-08-03T09:57:44;4.30;;;4.10;;
14373;SDS011;7270;49.004;12.066;2022-08-03T10:00:11;4.30;;;4.10;;
14373;SDS011;7270;49.004;12.066;2022-08-03T10:02:38;4.30;;;4.10;;
14373;SDS011;7270;49.004;12.066;2022-08-03T10:05:07;4.30;;;4.10;;
14373;SDS011;7270;49.004;12.066;2022-08-03T10:07:40;4.50;;;4.30;;
14373;SDS011;7270;49.004;12.066;2022-08-03T10:10:07;5.10;;;4.90;;
14373;SDS011;7270;49.004;12.066;2022-08-03T10:12:34;4.90;;;4.70;;
14373;SDS011;7270;49.004;12.066;2022-08-03T10:15:01;5.00;;;4.80;;
14373;SDS011;7270;49.004;12.066;2022-08-03T10:17:28;5.20;;;5.00;;
14373;SDS011;7270;49.004;12.066;2022-08-03T10:19:54;5.00;;;4.80;;
14373;SDS011;7270;49.004;12.066;2022-08-03T10:22:25;5.10;;;4.90;;
14373;SDS011;7270;49.004;12.066;2022-08-03T10:24:53;4.70;;;4.50;;
14373;SDS011;7270;49.004;12.066;2022-08-03T10:27:21;4.60;;;4.40;;
14373;SDS011;7270;49.004;12.066;2022-08-03T10:29:49;4.70;;;4.50;;
14373;SDS011;7270;49.004;12.066;2022-08-03T10:32:17;4.80;;;4.60;;
14373;SDS011;7270;49.004;12.066;2022-08-03T10:34:44;4.95;;;4.75;;
14373;SDS011;7270;49.004;12.066;2022-08-03T10:37:12;5.05;;;4.85;;
14373;SDS011;7270;49.004;12.066;2022-08-03T10:39:41;5.15;;;4.95;;
14373;SDS011;7270;49.004;12.066;2022-08-03T10:42:17;5.80;;;5.50;;
14373;SDS011;7270;49.004;12.066;2022-08-03T10:44:44;5.70;;;5.40;;
14373;SDS011;7270;49.004;12.066;2022-08-03T10:47:12;5.55;;;5.30;;
14373;SDS011;7270;49.004;12.066;2022-08-03T10:49:39;5.32;;;5.13;;
14373;SDS011;7270;49.004;12.066;2022-08-03T10:52:06;5.10;;;4.90;;
14373;SDS011;7270;49.004;12.066;2022-08-03T10:54:40;5.25;;;5.05;;
14373;SDS011;7270;49.004;12.066;2022-08-03T11:00:06;5.43;;;5.22;;
14373;SDS011;7270;49.004;12.066;2022-08-03T11:05:25;5.18;;;4.97;;
14373;SDS011;7270;49.004;12.066;2022-08-03T11:10:34;5.60;;;5.35;;
14373;SDS011;7270;49.004;12.066;2022-08-03T11:13:04;5.40;;;5.20;;
14373;SDS011;7270;49.004;12.066;2022-08-03T11:15:32;5.97;;;5.68;;
14373;SDS011;7270;49.004;12.066;2022-08-03T11:18:05;6.20;;;5.90;;
14373;SDS011;7270;49.004;12.066;2022-08-03T11:20:48;6.10;;;5.80;;
14373;SDS011;7270;49.004;12.066;2022-08-03T11:23:16;5.80;;;5.50;;
14373;SDS011;7270;49.004;12.066;2022-08-03T11:28:29;5.72;;;5.43;;
14373;SDS011;7270;49.004;12.066;2022-08-03T11:31:07;5.63;;;5.40;;
14373;SDS011;7270;49.004;12.066;2022-08-03T11:34:02;5.70;;;5.40;;
14373;SDS011;7270;49.004;12.066;2022-08-03T11:36:29;5.80;;;5.50;;
14373;SDS011;7270;49.004;12.066;2022-08-03T11:39:13;5.20;;;5.00;;
14373;SDS011;7270;49.004;12.066;2022-08-03T11:41:41;4.93;;;4.72;;
14373;SDS011;7270;49.004;12.066;2022-08-03T11:44:08;4.70;;;4.50;;
14373;SDS011;7270;49.004;12.066;2022-08-03T11:46:35;4.10;;;3.90;;
14373;SDS011;7270;49.004;12.066;2022-08-03T11:49:03;3.70;;;3.50;;
14373;SDS011;7270;49.004;12.066;2022-08-03T11:51:30;3.10;;;3.00;;
14373;SDS011;7270;49.004;12.066;2022-08-03T11:53:57;2.92;;;2.83;;
14373;SDS011;7270;49.004;12.066;2022-08-03T11:56:24;2.70;;;2.60;;
14373;SDS011;7270;49.004;12.066;2022-08-03T11:58:51;2.60;;;2.50;;
14373;SDS011;7270;49.004;12.066;2022-08-03T12:01:20;2.50;;;2.40;;
14373;SDS011;7270;49.004;12.066;2022-08-03T12:03:46;2.40;;;2.30;;
14373;SDS011;7270;49.004;12.066;2022-08-03T12:06:13;2.25;;;2.15;;
14373;SDS011;7270;49.004;12.066;2022-08-03T12:08:40;2.10;;;2.00;;
14373;SDS011;7270;49.004;12.066;2022-08-03T12:11:07;1.90;;;1.80;;
14373;SDS011;7270;49.004;12.066;2022-08-03T12:13:35;1.90;;;1.80;;
14373;SDS011;7270;49.004;12.066;2022-08-03T12:16:01;2.00;;;1.90;;
14373;SDS011;7270;49.004;12.066;2022-08-03T12:18:29;1.90;;;1.80;;
14373;SDS011;7270;49.004;12.066;2022-08-03T12:21:02;1.73;;;1.63;;
14373;SDS011;7270;49.004;12.066;2022-08-03T12:23:28;1.80;;;1.70;;
14373;SDS011;7270;49.004;12.066;2022-08-03T12:25:59;1.90;;;1.80;;
14373;SDS011;7270;49.004;12.066;2022-08-03T12:28:26;1.70;;;1.60;;
14373;SDS011;7270;49.004;12.066;2022-08-03T12:30:52;1.60;;;1.50;;
14373;SDS011;7270;49.004;12.066;2022-08-03T12:33:20;1.80;;;1.70;;
14373;SDS011;7270;49.004;12.066;2022-08-03T12:35:49;1.70;;;1.60;;
14373;SDS011;7270;49.004;12.066;2022-08-03T12:38:19;1.60;;;1.50;;
14373;SDS011;7270;49.004;12.066;2022-08-03T12:40:53;1.70;;;1.60;;
14373;SDS011;7270;49.004;12.066;2022-08-03T12:43:20;1.70;;;1.60;;
14373;SDS011;7270;49.004;12.066;2022-08-03T12:45:46;1.63;;;1.53;;
14373;SDS011;7270;49.004;12.066;2022-08-03T12:48:12;1.60;;;1.50;;
14373;SDS011;7270;49.004;12.066;2022-08-03T12:50:39;1.60;;;1.50;;
14373;SDS011;7270;49.004;12.066;2022-08-03T12:53:07;1.60;;;1.50;;
14373;SDS011;7270;49.004;12.066;2022-08-03T12:55:34;1.70;;;1.60;;
14373;SDS011;7270;49.004;12.066;2022-08-03T12:58:01;1.60;;;1.50;;
14373;SDS011;7270;49.004;12.066;2022-08-03T13:00:28;1.70;;;1.60;;
14373;SDS011;7270;49.004;12.066;2022-08-03T13:02:58;1.60;;;1.50;;
14373;SDS011;7270;49.004;12.066;2022-08-03T13:05:24;1.50;;;1.40;;
14373;SDS011;7270;49.004;12.066;2022-08-03T13:07:50;1.70;;;1.60;;
14373;SDS011;7270;49.004;12.066;2022-08-03T13:10:27;1.60;;;1.50;;
14373;SDS011;7270;49.004;12.066;2022-08-03T13:12:53;1.60;;;1.50;;
14373;SDS011;7270;49.004;12.066;2022-08-03T13:15:22;1.70;;;1.60;;
14373;SDS011;7270;49.004;12.066;2022-08-03T13:17:52;1.60;;;1.50;;
14373;SDS011;7270;49.004;12.066;2022-08-03T13:20:18;1.60;;;1.50;;
14373;SDS011;7270;49.004;12.066;2022-08-03T13:22:45;1.60;;;1.50;;
14373;SDS011;7270;49.004;12.066;2022-08-03T13:25:12;1.70;;;1.60;;
14373;SDS011;7270;49.004;12.066;2022-08-03T13:27:39;1.53;;;1.43;;
14373;SDS011;7270;49.004;12.066;2022-08-03T13:30:06;1.60;;;1.50;;
14373;SDS011;7270;49.004;12.066;2022-08-03T13:32:33;1.67;;;1.57;;
14373;SDS011;7270;49.004;12.066;2022-08-03T13:34:59;1.70;;;1.60;;
14373;SDS011;7270;49.004;12.066;2022-08-03T13:37:26;1.70;;;1.60;;
14373;SDS011;7270;49.004;12.066;2022-08-03T13:39:53;1.63;;;1.53;;
14373;SDS011;7270;49.004;12.066;2022-08-03T13:42:19;1.60;;;1.50;;
14373;SDS011;7270;49.004;12.066;2022-08-03T13:44:47;1.60;;;1.50;;
14373;SDS011;7270;49.004;12.066;2022-08-03T13:47:13;1.60;;;1.50;;
14373;SDS011;7270;49.004;12.066;2022-08-03T13:49:40;1.60;;;1.50;;
14373;SDS011;7270;49.004;12.066;2022-08-03T13:52:06;1.50;;;1.40;;
14373;SDS011;7270;49.004;12.066;2022-08-03T13:54:32;1.60;;;1.50;;
14373;SDS011;7270;49.004;12.066;2022-08-03T13:56:59;1.50;;;1.40;;
14373;SDS011;7270;49.004;12.066;2022-08-03T13:59:26;1.70;;;1.60;;
14373;SDS011;7270;49.004;12.066;2022-08-03T14:01:53;1.60;;;1.50;;
14373;SDS011;7270;49.004;12.066;2022-08-03T14:04:20;1.60;;;1.50;;
14373;SDS011;7270;49.004;12.066;2022-08-03T14:06:47;1.57;;;1.47;;
14373;SDS011;7270;49.004;12.066;2022-08-03T14:09:13;1.50;;;1.40;;
14373;SDS011;7270;49.004;12.066;2022-08-03T14:11:40;1.60;;;1.50;;
14373;SDS011;7270;49.004;12.066;2022-08-03T14:14:06;1.50;;;1.40;;
14373;SDS011;7270;49.004;12.066;2022-08-03T14:16:33;1.50;;;1.40;;
14373;SDS011;7270;49.004;12.066;2022-08-03T14:19:00;1.60;;;1.50;;
14373;SDS011;7270;49.004;12.066;2022-08-03T14:21:27;1.40;;;1.30;;
14373;SDS011;7270;49.004;12.066;2022-08-03T14:23:55;1.60;;;1.50;;
14373;SDS011;7270;49.004;12.066;2022-08-03T14:26:22;1.60;;;1.50;;
14373;SDS011;7270;49.004;12.066;2022-08-03T14:28:51;1.50;;;1.40;;
14373;SDS011;7270;49.004;12.066;2022-08-03T14:31:17;1.60;;;1.50;;
14373;SDS011;7270;49.004;12.066;2022-08-03T14:33:43;1.47;;;1.37;;
14373;SDS011;7270;49.004;12.066;2022-08-03T14:36:11;1.40;;;1.30;;
14373;SDS011;7270;49.004;12.066;2022-08-03T14:38:37;1.50;;;1.40;;
14373;SDS011;7270;49.004;12.066;2022-08-03T14:41:04;1.50;;;1.40;;
14373;SDS011;7270;49.004;12.066;2022-08-03T14:43:30;1.50;;;1.40;;
14373;SDS011;7270;49.004;12.066;2022-08-03T14:45:56;1.50;;;1.40;;
14373;SDS011;7270;49.004;12.066;2022-08-03T14:48:23;1.70;;;1.60;;
14373;SDS011;7270;49.004;12.066;2022-08-03T14:50:51;1.53;;;1.43;;
14373;SDS011;7270;49.004;12.066;2022-08-03T14:53:20;1.50;;;1.40;;
14373;SDS011;7270;49.004;12.066;2022-08-03T14:55:46;1.50;;;1.40;;
14373;SDS011;7270;49.004;12.066;2022-08-03T14:58:13;1.60;;;1.50;;
14373;SDS011;7270;49.004;12.066;2022-08-03T15:00:39;1.50;;;1.40;;
14373;SDS011;7270;49.004;12.066;2022-08-03T15:03:06;1.50;;;1.40;;
14373;SDS011;7270;49.004;12.066;2022-08-03T15:05:32;1.80;;;1.70;;
14373;SDS011;7270;49.004;12.066;2022-08-03T15:07:58;1.70;;;1.60;;
14373;SDS011;7270;49.004;12.066;2022-08-03T15:10:26;1.80;;;1.70;;
14373;SDS011;7270;49.004;12.066;2022-08-03T15:12:52;1.70;;;1.60;;
14373;SDS011;7270;49.004;12.066;2022-08-03T15:15:19;1.80;;;1.70;;
14373;SDS011;7270;49.004;12.066;2022-08-03T15:17:46;1.90;;;1.80;;
14373;SDS011;7270;49.004;12.066;2022-08-03T15:20:12;1.80;;;1.70;;
14373;SDS011;7270;49.004;12.066;2022-08-03T15:22:39;2.00;;;1.90;;
14373;SDS011;7270;49.004;12.066;2022-08-03T15:25:05;1.90;;;1.80;;
14373;SDS011;7270;49.004;12.066;2022-08-03T15:27:33;1.80;;;1.70;;
14373;SDS011;7270;49.004;12.066;2022-08-03T15:30:00;1.90;;;1.80;;
14373;SDS011;7270;49.004;12.066;2022-08-03T15:32:30;2.00;;;1.90;;
14373;SDS011;7270;49.004;12.066;2022-08-03T15:34:56;1.80;;;1.70;;
14373;SDS011;7270;49.004;12.066;2022-08-03T15:37:23;1.90;;;1.80;;
14373;SDS011;7270;49.004;12.066;2022-08-03T15:39:49;1.90;;;1.80;;
14373;SDS011;7270;49.004;12.066;2022-08-03T15:42:16;2.00;;;1.90;;
14373;SDS011;7270;49.004;12.066;2022-08-03T15:44:44;1.80;;;1.70;;
14373;SDS011;7270;49.004;12.066;2022-08-03T15:47:10;1.80;;;1.70;;
14373;SDS011;7270;49.004;12.066;2022-08-03T15:49:36;1.90;;;1.80;;
14373;SDS011;7270;49.004;12.066;2022-08-03T15:52:03;1.80;;;1.70;;
14373;SDS011;7270;49.004;12.066;2022-08-03T15:54:29;1.90;;;1.80;;
14373;SDS011;7270;49.004;12.066;2022-08-03T15:56:56;1.80;;;1.70;;
14373;SDS011;7270;49.004;12.066;2022-08-03T15:59:22;1.90;;;1.80;;
14373;SDS011;7270;49.004;12.066;2022-08-03T16:01:50;1.87;;;1.77;;
14373;SDS011;7270;49.004;12.066;2022-08-03T16:04:17;1.73;;;1.63;;
14373;SDS011;7270;49.004;12.066;2022-08-03T16:06:43;1.90;;;1.80;;
14373;SDS011;7270;49.004;12.066;2022-08-03T16:09:09;1.80;;;1.70;;
14373;SDS011;7270;49.004;12.066;2022-08-03T16:11:36;1.80;;;1.70;;
14373;SDS011;7270;49.004;12.066;2022-08-03T16:14:02;1.77;;;1.67;;
14373;SDS011;7270;49.004;12.066;2022-08-03T16:16:28;1.70;;;1.60;;
14373;SDS011;7270;49.004;12.066;2022-08-03T16:18:56;1.70;;;1.60;;
14373;SDS011;7270;49.004;12.066;2022-08-03T16:21:23;1.80;;;1.70;;
14373;SDS011;7270;49.004;12.066;2022-08-03T16:23:50;1.90;;;1.80;;
14373;SDS011;7270;49.004;12.066;2022-08-03T16:26:16;1.70;;;1.60;;
14373;SDS011;7270;49.004;12.066;2022-08-03T16:28:42;1.80;;;1.70;;
14373;SDS011;7270;49.004;12.066;2022-08-03T16:31:09;1.70;;;1.60;;
14373;SDS011;7270;49.004;12.066;2022-08-03T16:33:35;1.70;;;1.60;;
14373;SDS011;7270;49.004;12.066;2022-08-03T16:36:03;1.67;;;1.57;;
14373;SDS011;7270;49.004;12.066;2022-08-03T16:38:29;1.70;;;1.60;;
14373;SDS011;7270;49.004;12.066;2022-08-03T16:40:56;1.90;;;1.80;;
14373;SDS011;7270;49.004;12.066;2022-08-03T16:43:22;1.80;;;1.70;;
14373;SDS011;7270;49.004;12.066;2022-08-03T16:45:49;1.70;;;1.60;;
14373;SDS011;7270;49.004;12.066;2022-08-03T16:48:16;1.80;;;1.70;;
14373;SDS011;7270;49.004;12.066;2022-08-03T16:50:42;1.60;;;1.50;;
14373;SDS011;7270;49.004;12.066;2022-08-03T16:53:11;1.70;;;1.60;;
14373;SDS011;7270;49.004;12.066;2022-08-03T16:55:38;1.70;;;1.60;;
14373;SDS011;7270;49.004;12.066;2022-08-03T16:58:04;1.70;;;1.60;;
14373;SDS011;7270;49.004;12.066;2022-08-03T17:00:32;1.70;;;1.60;;
14373;SDS011;7270;49.004;12.066;2022-08-03T17:03:01;1.70;;;1.60;;
14373;SDS011;7270;49.004;12.066;2022-08-03T17:05:28;1.70;;;1.60;;
14373;SDS011;7270;49.004;12.066;2022-08-03T17:07:54;1.80;;;1.70;;
14373;SDS011;7270;49.004;12.066;2022-08-03T17:10:22;1.70;;;1.60;;
14373;SDS011;7270;49.004;12.066;2022-08-03T17:12:49;1.73;;;1.63;;
14373;SDS011;7270;49.004;12.066;2022-08-03T17:15:15;1.70;;;1.60;;
14373;SDS011;7270;49.004;12.066;2022-08-03T17:17:42;1.60;;;1.50;;
14373;SDS011;7270;49.004;12.066;2022-08-03T17:20:13;1.70;;;1.60;;
14373;SDS011;7270;49.004;12.066;2022-08-03T17:22:46;1.60;;;1.50;;
14373;SDS011;7270;49.004;12.066;2022-08-03T17:25:14;1.70;;;1.60;;
14373;SDS011;7270;49.004;12.066;2022-08-03T17:27:43;1.60;;;1.50;;
14373;SDS011;7270;49.004;12.066;2022-08-03T17:30:11;1.60;;;1.50;;
14373;SDS011;7270;49.004;12.066;2022-08-03T17:32:39;1.70;;;1.60;;
14373;SDS011;7270;49.004;12.066;2022-08-03T17:35:07;1.60;;;1.50;;
14373;SDS011;7270;49.004;12.066;2022-08-03T17:37:33;1.60;;;1.50;;
14373;SDS011;7270;49.004;12.066;2022-08-03T17:40:00;1.60;;;1.50;;
14373;SDS011;7270;49.004;12.066;2022-08-03T17:42:27;1.70;;;1.60;;
14373;SDS011;7270;49.004;12.066;2022-08-03T17:44:55;1.70;;;1.60;;
14373;SDS011;7270;49.004;12.066;2022-08-03T17:47:22;1.70;;;1.60;;
14373;SDS011;7270;49.004;12.066;2022-08-03T17:49:48;1.60;;;1.50;;
14373;SDS011;7270;49.004;12.066;2022-08-03T17:52:16;1.60;;;1.50;;
14373;SDS011;7270;49.004;12.066;2022-08-03T17:54:47;1.50;;;1.40;;
14373;SDS011;7270;49.004;12.066;2022-08-03T17:57:17;1.50;;;1.40;;
14373;SDS011;7270;49.004;12.066;2022-08-03T17:59:49;1.60;;;1.50;;
14373;SDS011;7270;49.004;12.066;2022-08-03T18:02:22;1.60;;;1.50;;
14373;SDS011;7270;49.004;12.066;2022-08-03T18:05:09;1.70;;;1.60;;
14373;SDS011;7270;49.004;12.066;2022-08-03T18:07:38;1.60;;;1.50;;
14373;SDS011;7270;49.004;12.066;2022-08-03T18:10:06;1.60;;;1.50;;
14373;SDS011;7270;49.004;12.066;2022-08-03T18:12:39;1.50;;;1.40;;
14373;SDS011;7270;49.004;12.066;2022-08-03T18:15:09;1.60;;;1.50;;
14373;SDS011;7270;49.004;12.066;2022-08-03T18:17:40;1.50;;;1.40;;
14373;SDS011;7270;49.004;12.066;2022-08-03T18:20:07;1.67;;;1.57;;
14373;SDS011;7270;49.004;12.066;2022-08-03T18:22:34;1.60;;;1.50;;
14373;SDS011;7270;49.004;12.066;2022-08-03T18:25:01;1.50;;;1.40;;
14373;SDS011;7270;49.004;12.066;2022-08-03T18:27:30;1.50;;;1.40;;
14373;SDS011;7270;49.004;12.066;2022-08-03T18:29:57;1.60;;;1.50;;
14373;SDS011;7270;49.004;12.066;2022-08-03T18:32:24;1.43;;;1.33;;
14373;SDS011;7270;49.004;12.066;2022-08-03T18:34:52;1.53;;;1.43;;
14373;SDS011;7270;49.004;12.066;2022-08-03T18:37:21;1.50;;;1.40;;
14373;SDS011;7270;49.004;12.066;2022-08-03T18:39:48;1.60;;;1.50;;
14373;SDS011;7270;49.004;12.066;2022-08-03T18:42:15;1.50;;;1.40;;
14373;SDS011;7270;49.004;12.066;2022-08-03T18:44:41;1.50;;;1.40;;
14373;SDS011;7270;49.004;12.066;2022-08-03T18:47:22;1.50;;;1.40;;
14373;SDS011;7270;49.004;12.066;2022-08-03T18:50:00;1.50;;;1.40;;
14373;SDS011;7270;49.004;12.066;2022-08-03T18:52:30;1.50;;;1.40;;
14373;SDS011;7270;49.004;12.066;2022-08-03T18:54:58;1.50;;;1.40;;
14373;SDS011;7270;49.004;12.066;2022-08-03T18:57:27;1.50;;;1.40;;
14373;SDS011;7270;49.004;12.066;2022-08-03T18:59:58;1.60;;;1.50;;
14373;SDS011;7270;49.004;12.066;2022-08-03T19:02:31;1.50;;;1.40;;
14373;SDS011;7270;49.004;12.066;2022-08-03T19:05:03;1.80;;;1.70;;
14373;SDS011;7270;49.004;12.066;2022-08-03T19:07:30;1.40;;;1.30;;
14373;SDS011;7270;49.004;12.066;2022-08-03T19:09:58;1.50;;;1.40;;
14373;SDS011;7270;49.004;12.066;2022-08-03T19:12:26;1.10;;;1.10;;
14373;SDS011;7270;49.004;12.066;2022-08-03T19:14:55;1.40;;;1.30;;
14373;SDS011;7270;49.004;12.066;2022-08-03T19:17:23;1.40;;;1.30;;
14373;SDS011;7270;49.004;12.066;2022-08-03T19:19:53;1.47;;;1.37;;
14373;SDS011;7270;49.004;12.066;2022-08-03T19:22:27;1.27;;;1.23;;
14373;SDS011;7270;49.004;12.066;2022-08-03T19:24:57;1.30;;;1.30;;
14373;SDS011;7270;49.004;12.066;2022-08-03T19:27:26;1.50;;;1.40;;
14373;SDS011;7270;49.004;12.066;2022-08-03T19:29:54;1.20;;;1.20;;
14373;SDS011;7270;49.004;12.066;2022-08-03T19:32:21;1.30;;;1.30;;
14373;SDS011;7270;49.004;12.066;2022-08-03T19:34:48;1.20;;;1.20;;
14373;SDS011;7270;49.004;12.066;2022-08-03T19:37:16;1.30;;;1.30;;
14373;SDS011;7270;49.004;12.066;2022-08-03T19:39:44;1.10;;;1.10;;
14373;SDS011;7270;49.004;12.066;2022-08-03T19:42:10;1.40;;;1.30;;
14373;SDS011;7270;49.004;12.066;2022-08-03T19:44:41;1.40;;;1.30;;
14373;SDS011;7270;49.004;12.066;2022-08-03T19:47:10;1.20;;;1.20;;
14373;SDS011;7270;49.004;12.066;2022-08-03T19:49:38;1.10;;;1.10;;
14373;SDS011;7270;49.004;12.066;2022-08-03T19:52:04;1.03;;;1.03;;
14373;SDS011;7270;49.004;12.066;2022-08-03T19:54:34;1.10;;;1.10;;
14373;SDS011;7270;49.004;12.066;2022-08-03T19:57:03;1.63;;;1.53;;
14373;SDS011;7270;49.004;12.066;2022-08-03T19:59:29;1.50;;;1.40;;
14373;SDS011;7270;49.004;12.066;2022-08-03T20:02:03;1.43;;;1.33;;
14373;SDS011;7270;49.004;12.066;2022-08-03T20:04:29;1.37;;;1.30;;
14373;SDS011;7270;49.004;12.066;2022-08-03T20:06:56;1.20;;;1.20;;
14373;SDS011;7270;49.004;12.066;2022-08-03T20:09:22;1.30;;;1.20;;
14373;SDS011;7270;49.004;12.066;2022-08-03T20:12:06;1.40;;;1.30;;
14373;SDS011;7270;49.004;12.066;2022-08-03T20:14:32;1.50;;;1.40;;
14373;SDS011;7270;49.004;12.066;2022-08-03T20:16:59;1.20;;;1.20;;
14373;SDS011;7270;49.004;12.066;2022-08-03T20:19:25;1.40;;;1.30;;
14373;SDS011;7270;49.004;12.066;2022-08-03T20:24:31;1.20;;;1.20;;
14373;SDS011;7270;49.004;12.066;2022-08-03T20:27:00;1.40;;;1.30;;
14373;SDS011;7270;49.004;12.066;2022-08-03T20:29:30;1.40;;;1.30;;
14373;SDS011;7270;49.004;12.066;2022-08-03T20:31:58;1.50;;;1.40;;
14373;SDS011;7270;49.004;12.066;2022-08-03T20:34:25;1.40;;;1.30;;
14373;SDS011;7270;49.004;12.066;2022-08-03T20:36:51;1.33;;;1.27;;
14373;SDS011;7270;49.004;12.066;2022-08-03T20:39:18;1.40;;;1.30;;